createdAt,value
2024-05-09T00:00:50.423Z,3.90
2024-05-09T00:03:40.792Z,3.40
2024-05-09T00:06:09.674Z,3.60
2024-05-09T00:08:39.017Z,4.00
2024-05-09T00:13:37.591Z,3.90
2024-05-09T00:16:06.722Z,4.00
2024-05-09T00:18:36.732Z,3.90
2024-05-09T00:21:14.003Z,3.90
2024-05-09T01:15:13.939Z,3.70
2024-05-09T01:17:42.381Z,3.90
2024-05-09T01:20:12.989Z,3.30
2024-05-09T01:22:47.802Z,3.40
2024-05-09T01:25:15.733Z,3.30
2024-05-09T01:27:43.215Z,3.40
2024-05-09T01:30:17.032Z,3.70
2024-05-09T01:32:48.555Z,3.60
2024-05-09T01:35:16.506Z,3.20
2024-05-09T01:37:44.090Z,3.80
2024-05-09T01:40:15.375Z,3.20
2024-05-09T01:42:46.367Z,3.90
2024-05-09T01:45:14.012Z,3.50
2024-05-09T01:47:41.909Z,3.60
2024-05-09T01:50:11.069Z,3.70
2024-05-09T01:52:38.818Z,3.90
2024-05-09T01:55:07.160Z,4.10
2024-05-09T01:57:35.116Z,4.20
2024-05-09T02:00:03.906Z,4.40
2024-05-09T02:02:38.221Z,4.40
2024-05-09T02:05:06.393Z,4.20
2024-05-09T02:07:34.980Z,4.40
2024-05-09T02:10:06.457Z,4.70
2024-05-09T02:12:36.060Z,4.60
2024-05-09T02:15:06.777Z,4.60
2024-05-09T02:17:35.550Z,4.40
2024-05-09T02:20:13.222Z,4.50
2024-05-09T02:22:45.672Z,4.50
2024-05-09T02:27:46.116Z,4.30
2024-05-09T02:30:22.382Z,4.60
2024-05-09T02:32:54.203Z,4.50
2024-05-09T02:35:21.889Z,4.70
2024-05-09T02:37:49.468Z,4.20
2024-05-09T02:40:25.610Z,4.90
2024-05-09T02:43:01.031Z,5.40
2024-05-09T02:45:28.738Z,5.80
2024-05-09T02:47:56.552Z,5.40
2024-05-09T02:50:33.108Z,4.70
2024-05-09T02:53:05.533Z,5.30
2024-05-09T03:17:23.343Z,8.60
2024-05-09T03:19:51.306Z,8.20
2024-05-09T03:22:19.086Z,7.90
2024-05-09T03:24:46.586Z,8.20
2024-05-09T03:27:20.627Z,7.50
2024-05-09T03:29:51.315Z,8.50
2024-05-09T03:32:19.001Z,9.20
2024-05-09T03:34:46.684Z,9.50
2024-05-09T03:37:16.446Z,9.30
2024-05-09T03:39:47.955Z,9.20
2024-05-09T03:42:15.511Z,9.00
2024-05-09T03:44:43.511Z,8.60
2024-05-09T03:47:11.031Z,11.50
2024-05-09T03:49:38.669Z,13.40
2024-05-09T03:52:06.380Z,16.70
2024-05-09T03:54:48.570Z,16.20
2024-05-09T03:57:16.581Z,17.20
2024-05-09T03:59:49.047Z,17.60
2024-05-09T04:02:16.706Z,19.60
2024-05-09T04:04:45.032Z,18.60
2024-05-09T04:07:14.186Z,18.60
2024-05-09T04:09:41.684Z,18.00
2024-05-09T04:12:10.959Z,18.20
2024-05-09T04:14:38.743Z,16.20
2024-05-09T04:17:15.766Z,15.50
2024-05-09T04:19:45.568Z,14.50
2024-05-09T04:22:21.312Z,14.20
2024-05-09T04:24:48.923Z,13.50
2024-05-09T04:27:16.429Z,12.70
2024-05-09T04:29:46.348Z,11.30
2024-05-09T04:32:14.163Z,10.40
2024-05-09T04:34:48.144Z,9.80
2024-05-09T04:37:15.845Z,7.90
2024-05-09T04:39:43.320Z,7.60
2024-05-09T04:42:11.126Z,6.60
2024-05-09T04:44:39.388Z,6.70
2024-05-09T04:47:09.602Z,7.30
2024-05-09T04:49:37.268Z,7.30
2024-05-09T04:52:06.520Z,7.20
2024-05-09T04:54:46.889Z,6.30
2024-05-09T04:57:18.012Z,6.10
2024-05-09T04:59:48.580Z,6.40
2024-05-09T05:02:16.498Z,6.10
2024-05-09T05:04:47.059Z,6.20
2024-05-09T05:07:17.903Z,5.80
2024-05-09T05:09:47.753Z,6.20
2024-05-09T05:12:41.295Z,6.70
2024-05-09T05:15:10.924Z,6.30
2024-05-09T05:17:41.485Z,7.00
2024-05-09T05:20:12.627Z,6.80
2024-05-09T05:22:43.645Z,6.70
2024-05-09T05:25:14.844Z,6.10
2024-05-09T05:27:43.639Z,5.90
2024-05-09T05:30:24.962Z,6.90
2024-05-09T05:32:56.549Z,5.80
2024-05-09T05:35:24.360Z,6.20
2024-05-09T05:37:52.093Z,6.40
2024-05-09T05:40:28.362Z,6.40
2024-05-09T05:43:10.878Z,6.40
2024-05-09T05:45:46.230Z,6.20
2024-05-09T05:48:17.977Z,6.40
2024-05-09T05:50:46.299Z,6.60
2024-05-09T05:53:14.509Z,6.50
2024-05-09T05:55:42.601Z,6.30
2024-05-09T05:58:14.908Z,8.20
2024-05-09T06:00:43.262Z,8.80
2024-05-09T06:03:18.083Z,8.10
2024-05-09T06:05:46.621Z,6.90
2024-05-09T06:08:42.217Z,6.00
2024-05-09T06:11:12.504Z,5.80
2024-05-09T06:13:44.928Z,5.60
2024-05-09T06:16:12.728Z,5.60
2024-05-09T06:18:40.455Z,5.60
2024-05-09T06:21:08.482Z,5.80
2024-05-09T06:23:36.431Z,6.00
2024-05-09T06:26:05.848Z,5.60
2024-05-09T06:31:06.297Z,5.90
2024-05-09T06:36:46.945Z,6.10
2024-05-09T06:39:17.760Z,6.30
2024-05-09T06:42:11.952Z,5.90
2024-05-09T06:44:41.981Z,6.30
2024-05-09T06:47:12.391Z,5.70
2024-05-09T06:49:58.282Z,6.20
2024-05-09T07:00:45.821Z,4.90
2024-05-09T07:00:55.989Z,5.80
2024-05-09T07:03:24.909Z,4.80
2024-05-09T07:05:56.944Z,4.30
2024-05-09T07:08:25.154Z,4.80
2024-05-09T07:10:53.204Z,4.70
2024-05-09T08:00:31.504Z,2.90
2024-05-09T08:03:00.358Z,3.00
2024-05-09T08:05:28.371Z,3.00
2024-05-09T08:08:01.519Z,3.20
2024-05-09T08:10:31.812Z,3.40
2024-05-09T08:13:00.249Z,3.60
2024-05-09T08:15:29.589Z,3.10
2024-05-09T08:33:10.502Z,3.80
2024-05-09T08:36:55.175Z,2.30
2024-05-09T08:43:33.975Z,2.50
2024-05-09T08:47:03.411Z,2.50
2024-05-09T09:11:18.448Z,2.00
2024-05-09T09:18:20.219Z,2.60
2024-05-09T09:26:34.128Z,2.50
2024-05-09T09:47:07.881Z,2.70
2024-05-09T09:51:06.527Z,2.20
2024-05-09T10:08:04.310Z,2.70
2024-05-09T10:12:09.312Z,3.10
2024-05-09T10:18:44.731Z,2.40
2024-05-09T10:21:25.790Z,2.20
2024-05-09T10:24:12.040Z,2.30
2024-05-09T10:26:42.157Z,2.30
2024-05-09T10:29:18.540Z,2.60
2024-05-09T10:31:54.977Z,2.70
2024-05-09T10:34:42.734Z,2.40
2024-05-09T10:37:10.933Z,2.40
2024-05-09T10:39:48.081Z,2.40
2024-05-09T10:42:20.014Z,2.60
2024-05-09T10:45:07.883Z,2.10
2024-05-09T10:56:57.734Z,2.40
2024-05-09T11:26:52.681Z,2.20
2024-05-09T11:30:44.527Z,2.20
2024-05-09T11:38:59.375Z,2.30
2024-05-09T11:58:01.441Z,2.30
2024-05-09T12:00:57.383Z,2.00
2024-05-09T12:03:56.881Z,1.90
2024-05-09T12:10:40.054Z,2.30
2024-05-09T12:20:21.105Z,2.60
2024-05-09T12:22:58.566Z,2.20
2024-05-09T12:25:25.928Z,2.70
2024-05-09T12:27:55.878Z,2.40
2024-05-09T12:30:37.330Z,2.20
2024-05-09T12:33:14.632Z,2.50
2024-05-09T12:35:52.502Z,2.20
2024-05-09T12:38:25.063Z,2.10
2024-05-09T12:40:52.210Z,2.10
2024-05-09T12:43:24.144Z,2.30
2024-05-09T12:46:01.339Z,2.10
2024-05-09T12:48:42.146Z,2.20
2024-05-09T12:51:25.130Z,2.70
2024-05-09T12:54:08.936Z,2.70
2024-05-09T12:59:15.073Z,1.90
2024-05-09T13:01:52.553Z,2.30
2024-05-09T13:04:33.706Z,2.10
2024-05-09T13:07:08.115Z,2.00
2024-05-09T13:09:37.949Z,1.90
2024-05-09T13:12:13.777Z,2.00
2024-05-09T13:14:41.334Z,1.80
2024-05-09T13:17:12.998Z,2.10
2024-05-09T13:20:29.643Z,2.10
2024-05-09T13:27:04.084Z,1.80
2024-05-09T13:29:53.061Z,2.00
2024-05-09T13:32:40.459Z,1.50
2024-05-09T13:35:08.109Z,2.30
2024-05-09T13:37:38.320Z,2.90
2024-05-09T13:40:14.455Z,4.80
2024-05-09T13:42:48.775Z,3.70
2024-05-09T13:45:37.811Z,3.00
2024-05-09T13:48:06.530Z,2.40
2024-05-09T13:50:39.804Z,2.10
2024-05-09T13:53:13.096Z,2.20
2024-05-09T13:55:41.094Z,2.30
2024-05-09T14:01:18.722Z,1.90
2024-05-09T14:03:56.831Z,1.90
2024-05-09T14:06:28.168Z,2.10
2024-05-09T14:09:13.716Z,2.10
2024-05-09T14:11:47.031Z,2.10
2024-05-09T14:14:14.047Z,1.80
2024-05-09T14:16:46.128Z,2.10
2024-05-09T14:19:19.132Z,2.40
2024-05-09T14:21:48.181Z,1.70
2024-05-09T14:24:17.206Z,1.60
2024-05-09T14:26:48.089Z,2.30
2024-05-09T14:29:14.889Z,1.60
2024-05-09T14:31:41.859Z,1.80
2024-05-09T14:34:12.878Z,1.80
2024-05-09T14:36:47.181Z,2.00
2024-05-09T14:39:14.468Z,1.80
2024-05-09T14:41:45.924Z,2.00
2024-05-09T14:44:15.501Z,1.90
2024-05-09T14:46:42.517Z,1.70
2024-05-09T14:49:12.247Z,1.50
2024-05-09T14:51:47.732Z,1.50
2024-05-09T14:54:22.121Z,1.80
2024-05-09T14:57:06.352Z,1.80
2024-05-09T14:59:34.445Z,1.90
2024-05-09T15:02:06.134Z,1.90
2024-05-09T15:04:36.982Z,1.60
2024-05-09T15:07:11.646Z,2.00
2024-05-09T15:09:43.073Z,2.00
2024-05-09T15:12:10.012Z,2.00
2024-05-09T15:14:37.090Z,1.40
2024-05-09T15:17:04.403Z,1.70
2024-05-09T15:19:31.302Z,2.00
2024-05-09T15:21:58.284Z,1.90
2024-05-09T15:24:35.839Z,1.60
2024-05-09T15:27:02.736Z,1.80
2024-05-09T15:29:30.487Z,1.50
2024-05-09T15:31:57.273Z,1.60
2024-05-09T15:34:29.424Z,1.70
2024-05-09T15:36:59.006Z,1.50
2024-05-09T15:39:29.372Z,1.20
2024-05-09T15:41:58.499Z,1.40
2024-05-09T15:44:25.193Z,1.50
2024-05-09T15:46:57.216Z,1.50
2024-05-09T15:49:25.685Z,1.40
2024-05-09T15:51:52.547Z,1.40
2024-05-09T15:54:19.604Z,1.90
2024-05-09T15:56:50.292Z,1.40
2024-05-09T15:59:17.784Z,1.60
2024-05-09T16:01:44.323Z,1.30
2024-05-09T16:04:13.778Z,1.70
2024-05-09T16:06:40.936Z,1.40
2024-05-09T16:09:08.346Z,1.20
2024-05-09T16:11:35.396Z,1.50
2024-05-09T16:14:03.232Z,1.60
2024-05-09T16:16:30.518Z,1.50
2024-05-09T16:18:57.694Z,1.70
2024-05-09T16:21:26.006Z,1.40
2024-05-09T16:23:52.593Z,1.50
2024-05-09T16:26:19.409Z,1.60
2024-05-09T16:28:45.991Z,1.70
2024-05-09T16:31:12.766Z,1.40
2024-05-09T16:33:40.020Z,1.60
2024-05-09T16:36:07.053Z,1.30
2024-05-09T16:38:33.818Z,1.50
2024-05-09T16:41:00.703Z,1.50
2024-05-09T16:43:27.459Z,1.60
2024-05-09T16:45:54.174Z,1.20
2024-05-09T16:48:21.162Z,1.50
2024-05-09T16:50:48.632Z,1.70
2024-05-09T16:53:15.387Z,1.30
2024-05-09T16:55:42.062Z,1.60
2024-05-09T16:58:11.404Z,1.60
2024-05-09T17:00:42.196Z,1.50
2024-05-09T17:03:15.871Z,1.50
2024-05-09T17:05:45.189Z,1.70
2024-05-09T17:08:12.216Z,1.50
2024-05-09T17:10:40.089Z,1.60
2024-05-09T17:13:08.059Z,1.40
2024-05-09T17:15:36.908Z,1.40
2024-05-09T17:18:07.223Z,1.50
2024-05-09T17:20:36.887Z,1.40
2024-05-09T17:23:12.072Z,1.60
2024-05-09T17:25:39.180Z,1.50
2024-05-09T17:28:07.810Z,1.80
2024-05-09T17:30:37.731Z,1.70
2024-05-09T17:33:08.004Z,1.70
2024-05-09T17:35:35.986Z,1.60
2024-05-09T17:38:04.571Z,1.60
2024-05-09T17:40:35.423Z,1.70
2024-05-09T17:43:05.701Z,1.70
2024-05-09T17:45:33.763Z,1.80
2024-05-09T17:48:00.779Z,1.60
2024-05-09T17:50:35.284Z,1.70
2024-05-09T17:53:07.509Z,1.50
2024-05-09T17:55:34.815Z,1.60
2024-05-09T17:58:02.664Z,1.60
2024-05-09T18:00:38.771Z,1.70
2024-05-09T18:03:10.458Z,1.60
2024-05-09T18:05:37.961Z,1.50
2024-05-09T18:08:06.242Z,1.60
2024-05-09T18:10:37.211Z,1.60
2024-05-09T18:13:07.890Z,1.30
2024-05-09T18:15:35.012Z,1.70
2024-05-09T18:18:04.949Z,1.50
2024-05-09T18:20:41.074Z,1.70
2024-05-09T18:23:17.032Z,1.60
2024-05-09T18:25:45.737Z,1.70
2024-05-09T18:28:14.077Z,1.80
2024-05-09T18:30:41.278Z,1.90
2024-05-09T18:33:12.186Z,2.30
2024-05-09T18:35:43.366Z,2.10
2024-05-09T18:38:10.202Z,2.30
2024-05-09T18:40:38.417Z,2.30
2024-05-09T18:43:08.251Z,2.20
2024-05-09T18:45:37.697Z,2.20
2024-05-09T18:48:06.453Z,2.40
2024-05-09T18:50:38.502Z,2.60
2024-05-09T18:53:09.170Z,2.30
2024-05-09T18:55:36.976Z,2.50
2024-05-09T18:58:04.408Z,2.50
2024-05-09T19:00:35.993Z,2.70
2024-05-09T19:03:07.606Z,2.80
2024-05-09T19:08:03.553Z,3.20
2024-05-09T19:10:34.928Z,2.90
2024-05-09T19:13:07.254Z,2.80
2024-05-09T19:15:38.563Z,2.80
2024-05-09T19:18:06.530Z,2.80
2024-05-09T19:20:35.385Z,3.00
2024-05-09T19:23:04.108Z,3.00
2024-05-09T19:25:32.217Z,2.90
2024-05-09T19:27:59.289Z,3.10
2024-05-09T19:30:34.791Z,2.80
2024-05-09T19:33:07.283Z,2.50
2024-05-09T19:35:34.146Z,2.90
2024-05-09T19:38:01.305Z,3.10
2024-05-09T19:40:32.088Z,3.00
2024-05-09T19:43:01.556Z,3.30
2024-05-09T19:45:28.888Z,3.20
2024-05-09T19:47:55.799Z,3.30
2024-05-09T19:50:32.099Z,3.60
2024-05-09T19:53:08.376Z,3.80
2024-05-09T19:55:35.828Z,3.90
2024-05-09T19:58:05.202Z,3.30
2024-05-09T20:00:36.392Z,3.40
2024-05-09T20:03:08.724Z,3.40
2024-05-09T20:05:36.456Z,3.30
2024-05-09T20:08:04.470Z,3.40
2024-05-09T20:10:33.455Z,3.60
2024-05-09T20:13:03.272Z,3.40
2024-05-09T20:15:33.746Z,3.70
2024-05-09T20:20:35.509Z,3.20
2024-05-09T20:23:10.068Z,3.50
2024-05-09T20:25:37.696Z,3.60
2024-05-09T20:28:07.124Z,3.80
2024-05-09T20:30:35.365Z,4.20
2024-05-09T20:33:08.214Z,4.50
2024-05-09T20:35:36.233Z,4.40
2024-05-09T20:38:04.017Z,4.10
2024-05-09T20:40:35.184Z,4.40
2024-05-09T20:43:06.106Z,4.90
2024-05-09T20:45:33.851Z,4.20
2024-05-09T20:48:01.213Z,4.40
2024-05-09T20:50:36.053Z,4.60
2024-05-09T20:53:08.578Z,4.70
2024-05-09T20:55:35.266Z,4.60
2024-05-09T20:58:01.866Z,5.50
2024-05-09T21:00:35.476Z,6.10
2024-05-09T21:03:07.336Z,5.10
2024-05-09T21:05:35.211Z,5.10
2024-05-09T21:08:02.590Z,4.90
2024-05-09T21:10:32.943Z,4.80
2024-05-09T21:13:06.795Z,4.20
2024-05-09T21:15:34.486Z,4.30
2024-05-09T21:18:01.376Z,4.90
2024-05-09T21:20:32.062Z,4.70
2024-05-09T21:23:02.593Z,4.70
2024-05-09T21:25:30.255Z,4.70
2024-05-09T21:27:57.330Z,4.90
2024-05-09T21:32:55.278Z,4.90
2024-05-09T21:35:22.080Z,5.00
2024-05-09T21:37:48.764Z,5.00
2024-05-09T21:40:26.502Z,4.70
2024-05-09T21:42:58.318Z,5.50
2024-05-09T21:45:25.412Z,4.60
2024-05-09T21:47:52.116Z,5.00
2024-05-09T21:50:23.690Z,5.80
2024-05-09T21:52:58.739Z,5.70
2024-05-09T21:55:26.682Z,5.90
2024-05-09T21:57:53.340Z,6.00
2024-05-09T22:00:28.911Z,5.70
2024-05-09T22:03:02.169Z,5.50
2024-05-09T22:05:31.819Z,5.40
2024-05-09T22:07:58.633Z,6.00
2024-05-09T22:10:31.103Z,5.60
2024-05-09T22:13:01.752Z,6.80
2024-05-09T22:15:28.549Z,5.10
2024-05-09T22:17:55.817Z,4.70
2024-05-09T22:20:29.431Z,4.80
2024-05-09T22:23:03.337Z,5.20
2024-05-09T22:25:31.128Z,5.90
2024-05-09T22:28:00.695Z,7.30
2024-05-09T22:30:35.527Z,7.30
2024-05-09T22:33:10.839Z,7.20
2024-05-09T22:35:39.354Z,6.10
2024-05-09T22:38:07.223Z,6.50
2024-05-09T22:40:43.331Z,6.70
2024-05-09T22:43:22.616Z,7.00
2024-05-09T22:45:53.364Z,8.20
2024-05-09T22:48:20.757Z,6.00
2024-05-09T22:50:48.459Z,6.00
2024-05-09T22:53:15.167Z,6.70
2024-05-09T22:55:42.055Z,6.20
2024-05-09T22:58:08.753Z,6.80
2024-05-09T23:00:35.602Z,6.80
2024-05-09T23:03:03.010Z,6.70
2024-05-09T23:05:40.661Z,7.60
2024-05-09T23:08:22.807Z,7.90
2024-05-09T23:10:49.852Z,10.30
2024-05-09T23:13:16.591Z,11.50
2024-05-09T23:15:43.454Z,12.60
2024-05-09T23:18:10.781Z,11.00
2024-05-09T23:20:39.518Z,9.80
2024-05-09T23:23:08.242Z,8.80
2024-05-09T23:25:36.093Z,8.60
2024-05-09T23:28:03.595Z,9.30
2024-05-09T23:30:37.357Z,9.50
2024-05-09T23:33:08.996Z,8.80
2024-05-09T23:35:35.759Z,8.10
2024-05-09T23:38:02.570Z,7.60
2024-05-09T23:42:58.520Z,6.10
2024-05-09T23:45:24.949Z,6.50
2024-05-09T23:47:52.419Z,6.50
2024-05-09T23:50:26.339Z,6.20
2024-05-09T23:52:59.155Z,6.00
2024-05-09T23:55:25.798Z,6.30
2024-05-09T23:57:54.700Z,5.90
